Time;durP1;ratioP1;P1;durP2;ratioP2;P2;SDS_P1;SDS_P2;PMS_P1;PMS_P2;Temp;Humidity;BMP_temperature;BMP_pressure;BME280_temperature;BME280_humidity;BME280_pressure;Samples;Min_cycle;Max_cycle;Signal;HPM_P1;HPM_P2
2023/10/05 00:01:27;;;;;;;21.37;4.40;;;9.00;1.00;;;;;;5004292;28;20424;-79
2023/10/05 00:03:58;;;;;;;8.83;4.10;;;9.00;1.00;;;;;;5008070;28;20902;-79
2023/10/05 00:06:42;;;;;;;9.40;4.10;;;8.90;1.00;;;;;;5011367;28;20914;-79
2023/10/05 00:09:12;;;;;;;11.20;4.10;;;8.90;1.00;;;;;;5001510;28;20456;-79
2023/10/05 00:12:07;;;;;;;7.70;3.40;;;8.90;1.00;;;;;;5020564;28;20448;-79
2023/10/05 00:17:41;;;;;;;21.33;4.13;;;8.90;1.00;;;;;;5019916;28;20423;-81
2023/10/05 00:20:25;;;;;;;11.90;5.20;;;8.90;1.00;;;;;;5009488;28;20459;-81
2023/10/05 00:23:10;;;;;;;67.10;37.83;;;8.90;1.00;;;;;;5016446;28;20910;-81
2023/10/05 00:25:37;;;;;;;9.00;3.90;;;8.90;1.00;;;;;;5011059;28;20798;-82
2023/10/05 00:28:35;;;;;;;11.03;4.07;;;8.90;1.00;;;;;;5026641;28;20446;-81
2023/10/05 00:31:39;;;;;;;20.60;16.40;;;8.90;1.00;;;;;;5000495;28;20444;-79
2023/10/05 00:34:24;;;;;;;16.20;4.70;;;8.90;1.00;;;;;;5010681;28;20782;-79
2023/10/05 00:37:10;;;;;;;10.63;4.50;;;8.90;1.00;;;;;;5015142;28;20830;-79
2023/10/05 00:39:49;;;;;;;11.87;5.00;;;8.90;1.00;;;;;;4995436;28;20911;-78
2023/10/05 00:42:22;;;;;;;23.63;14.07;;;8.90;1.00;;;;;;5019947;28;20423;-79
2023/10/05 00:45:01;;;;;;;8.87;3.37;;;8.90;1.00;;;;;;5014602;28;20845;-78
2023/10/05 00:47:28;;;;;;;12.10;3.50;;;8.90;1.00;;;;;;5015059;28;20415;-79
2023/10/05 00:50:04;;;;;;;15.40;4.33;;;8.90;1.00;;;;;;5022611;28;20608;-79
2023/10/05 00:52:34;;;;;;;10.27;4.30;;;8.90;1.00;;;;;;5010855;28;20424;-79
2023/10/05 00:55:35;;;;;;;9.47;4.20;;;8.90;1.00;;;;;;5013687;28;20434;-79
2023/10/05 01:07:26;;;;;;;10.03;4.43;;;8.90;1.00;;;;;;5013604;28;20868;-81
2023/10/05 01:14:59;;;;;;;13.43;3.70;;;8.80;1.00;;;;;;5016736;28;20422;-81
2023/10/05 01:17:30;;;;;;;66.27;27.50;;;8.80;1.00;;;;;;5009418;28;20439;-79
2023/10/05 01:20:22;;;;;;;17.03;3.97;;;9.40;1.00;;;;;;5014148;28;20770;-79
2023/10/05 01:23:06;;;;;;;25.17;4.13;;;8.80;1.00;;;;;;5005348;28;20507;-79
2023/10/05 01:26:12;;;;;;;6.50;3.07;;;8.80;1.00;;;;;;5006754;28;20541;-79
2023/10/05 01:28:42;;;;;;;13.83;4.47;;;8.80;1.00;;;;;;5010022;28;20437;-79
2023/10/05 01:31:16;;;;;;;8.13;3.60;;;8.80;1.00;;;;;;5016486;28;20458;-81
2023/10/05 01:37:10;;;;;;;7.50;3.90;;;8.80;1.00;;;;;;5013775;28;20482;-81
2023/10/05 01:43:10;;;;;;;12.73;4.00;;;8.80;1.00;;;;;;5010962;28;20495;-81
2023/10/05 01:46:16;;;;;;;12.63;4.20;;;9.00;1.00;;;;;;5013400;28;20431;-81
2023/10/05 01:49:18;;;;;;;334.00;54.30;;;8.90;1.00;;;;;;5013217;28;20432;-81
2023/10/05 01:52:40;;;;;;;248.90;46.30;;;9.00;1.00;;;;;;5020043;28;20518;-80
2023/10/05 01:55:12;;;;;;;17.60;3.77;;;9.00;1.00;;;;;;5008176;28;20458;-80
2023/10/05 01:57:39;;;;;;;10.27;3.97;;;9.10;1.00;;;;;;5014376;28;20423;-81
2023/10/05 02:00:14;;;;;;;10.70;4.33;;;9.10;1.00;;;;;;5015074;28;20827;-81
2023/10/05 02:02:48;;;;;;;13.97;4.53;;;9.10;1.00;;;;;;5006120;28;20436;-78
2023/10/05 02:05:20;;;;;;;13.83;4.43;;;9.10;1.00;;;;;;5010997;28;20415;-79
2023/10/05 02:07:49;;;;;;;6.10;3.40;;;9.20;1.00;;;;;;5013248;28;20420;-79
2023/10/05 02:11:10;;;;;;;13.10;3.60;;;9.30;1.00;;;;;;5026391;28;20447;-79
2023/10/05 02:13:37;;;;;;;12.60;3.27;;;9.30;1.00;;;;;;5011626;28;20452;-79
2023/10/05 02:16:13;;;;;;;9.97;3.77;;;9.40;1.00;;;;;;5011125;28;20441;-80
2023/10/05 02:18:41;;;;;;;15.23;4.20;;;9.40;1.00;;;;;;5005522;28;20958;-79
2023/10/05 02:21:31;;;;;;;9.63;3.80;;;9.50;1.00;;;;;;5014795;28;20506;-79
2023/10/05 02:24:08;;;;;;;7.60;3.17;;;9.50;1.00;;;;;;5012551;28;20507;-79
2023/10/05 02:33:28;;;;;;;6.90;3.73;;;9.60;1.00;;;;;;5034002;28;20430;-79
2023/10/05 02:36:30;;;;;;;8.53;3.43;;;9.60;1.00;;;;;;5023736;28;20415;-79
2023/10/05 02:39:00;;;;;;;12.73;4.27;;;9.60;1.00;;;;;;5010686;28;20411;-79
2023/10/05 02:41:40;;;;;;;13.70;3.80;;;9.60;1.00;;;;;;5016619;28;20419;-79
2023/10/05 02:47:29;;;;;;;11.07;4.07;;;9.60;1.00;;;;;;5001434;28;20504;-81
2023/10/05 02:50:10;;;;;;;12.40;4.23;;;9.60;1.00;;;;;;5017114;28;20463;-81
2023/10/05 02:52:40;;;;;;;9.97;4.03;;;10.20;1.00;;;;;;5026317;28;20594;-81
2023/10/05 02:55:40;;;;;;;15.17;4.63;;;9.70;1.00;;;;;;5018571;28;20427;-81
2023/10/05 02:58:47;;;;;;;8.40;3.30;;;9.70;1.00;;;;;;5008191;28;20432;-81
2023/10/05 03:01:15;;;;;;;315.73;57.57;;;9.70;1.00;;;;;;5007774;28;20491;-81
2023/10/05 03:03:44;;;;;;;18.20;4.57;;;9.80;1.00;;;;;;5016122;28;20438;-81
2023/10/05 03:06:11;;;;;;;9.80;3.77;;;11.30;1.00;;;;;;5025923;28;20416;-81
2023/10/05 03:08:40;;;;;;;8.50;3.97;;;9.60;1.00;;;;;;5025178;28;20439;-81
2023/10/05 03:11:12;;;;;;;6.10;3.60;;;9.70;1.00;;;;;;5015853;28;20546;-81
2023/10/05 03:13:38;;;;;;;9.03;3.50;;;9.60;1.00;;;;;;5027101;28;20471;-81
2023/10/05 03:19:28;;;;;;;7.30;3.67;;;9.60;1.00;;;;;;5010790;28;20682;-80
2023/10/05 03:22:04;;;;;;;14.83;5.10;;;9.60;1.00;;;;;;5003884;28;20948;-81
2023/10/05 03:24:37;;;;;;;24.80;5.50;;;9.70;1.00;;;;;;5022776;28;20490;-81
2023/10/05 03:27:11;;;;;;;7.40;4.03;;;9.70;1.00;;;;;;5021073;28;20947;-81
2023/10/05 03:30:06;;;;;;;24.30;4.73;;;10.50;1.00;;;;;;5025635;28;20506;-81
2023/10/05 03:33:00;;;;;;;6.40;3.73;;;9.80;1.00;;;;;;5019188;28;20416;-79
2023/10/05 03:35:56;;;;;;;13.27;4.27;;;9.80;1.00;;;;;;5018396;28;20431;-79
2023/10/05 03:38:35;;;;;;;16.93;4.90;;;9.80;1.00;;;;;;5014674;28;20507;-79
2023/10/05 03:41:40;;;;;;;12.23;5.03;;;9.80;1.00;;;;;;5007384;28;20474;-79
2023/10/05 03:44:40;;;;;;;14.77;4.40;;;9.80;1.00;;;;;;5017492;28;20407;-79
2023/10/05 03:47:11;;;;;;;8.93;3.40;;;9.90;1.00;;;;;;5032567;28;20393;-81
2023/10/05 03:49:55;;;;;;;14.67;4.50;;;9.90;1.00;;;;;;5030758;28;20810;-81
2023/10/05 03:52:32;;;;;;;8.83;4.33;;;9.90;1.00;;;;;;5021808;28;20434;-81
2023/10/05 03:55:40;;;;;;;9.07;4.07;;;10.00;1.00;;;;;;5010752;28;20472;-80
2023/10/05 03:58:10;;;;;;;11.10;4.43;;;10.00;1.00;;;;;;5017121;28;20641;-80
2023/10/05 04:00:41;;;;;;;7.70;3.63;;;10.00;1.00;;;;;;5019607;28;20833;-82
2023/10/05 04:03:28;;;;;;;11.27;4.60;;;10.10;1.00;;;;;;5024011;28;20982;-81
2023/10/05 04:06:24;;;;;;;18.13;4.37;;;9.90;1.00;;;;;;5016598;28;20427;-80
2023/10/05 04:09:16;;;;;;;26.43;5.80;;;9.90;1.00;;;;;;5018162;28;20511;-88
2023/10/05 04:11:45;;;;;;;15.27;5.30;;;9.90;1.00;;;;;;5019302;28;20430;-93
2023/10/05 04:14:12;;;;;;;12.37;4.77;;;10.00;1.00;;;;;;5035066;28;20427;-93
2023/10/05 04:16:48;;;;;;;12.83;4.97;;;9.90;1.00;;;;;;5033555;28;20448;-93
2023/10/05 04:20:17;;;;;;;15.20;4.70;;;9.90;1.00;;;;;;5035370;28;20404;-89
2023/10/05 04:23:15;;;;;;;10.77;4.77;;;9.90;1.00;;;;;;5023494;28;20432;-89
2023/10/05 04:26:10;;;;;;;11.30;5.20;;;9.90;1.00;;;;;;5031323;28;20401;-89
2023/10/05 04:28:41;;;;;;;16.20;5.40;;;9.90;1.00;;;;;;5028735;28;20507;-89
2023/10/05 04:31:13;;;;;;;14.17;5.00;;;10.00;1.00;;;;;;5013159;28;20460;-89
2023/10/05 04:33:46;;;;;;;9.77;3.67;;;10.00;1.00;;;;;;5034114;28;20431;-93
2023/10/05 04:36:13;;;;;;;17.60;5.10;;;10.10;1.00;;;;;;5031492;28;20423;-93
2023/10/05 04:38:58;;;;;;;9.90;4.70;;;10.00;1.00;;;;;;5014592;28;20744;-94
2023/10/05 04:41:49;;;;;;;9.80;4.03;;;10.00;1.00;;;;;;5014658;28;20503;-93
2023/10/05 04:44:41;;;;;;;8.17;4.67;;;10.10;1.00;;;;;;5014719;28;20823;-93
2023/10/05 04:47:40;;;;;;;13.67;5.77;;;10.10;1.00;;;;;;5043874;28;20415;-93
2023/10/05 04:50:42;;;;;;;10.30;4.00;;;10.00;1.00;;;;;;5014106;28;20470;-88
2023/10/05 04:53:17;;;;;;;18.30;5.37;;;10.00;1.00;;;;;;4998121;28;20445;-88
2023/10/05 04:55:46;;;;;;;18.50;5.30;;;10.00;1.00;;;;;;5026684;28;20442;-89
2023/10/05 04:58:43;;;;;;;12.70;5.50;;;10.10;1.00;;;;;;5019317;28;20984;-89
2023/10/05 05:01:28;;;;;;;15.70;4.80;;;10.00;1.00;;;;;;5026454;28;20434;-86
2023/10/05 05:03:56;;;;;;;9.40;4.70;;;10.00;1.00;;;;;;5030765;28;20402;-88
2023/10/05 05:06:32;;;;;;;7.40;4.30;;;10.00;1.00;;;;;;5009399;28;20417;-89
2023/10/05 05:09:12;;;;;;;12.30;5.47;;;10.00;1.00;;;;;;5015219;28;20416;-89
2023/10/05 05:11:52;;;;;;;15.40;5.63;;;10.00;1.00;;;;;;5012596;28;20516;-89
2023/10/05 05:14:55;;;;;;;20.03;6.03;;;10.00;1.00;;;;;;5005334;28;21054;-88
2023/10/05 05:17:22;;;;;;;27.13;5.77;;;10.00;1.00;;;;;;5009702;28;20502;-89
2023/10/05 05:19:57;;;;;;;10.07;4.30;;;10.10;1.00;;;;;;5015100;28;20446;-94
2023/10/05 05:22:46;;;;;;;18.03;5.67;;;10.10;1.00;;;;;;5006214;28;20428;-92
2023/10/05 05:25:14;;;;;;;6.43;4.00;;;;;;;;;;5019957;28;20471;-93
2023/10/05 05:27:46;;;;;;;13.53;5.30;;;10.20;1.00;;;;;;5013260;28;20483;-84
2023/10/05 05:30:53;;;;;;;18.43;4.77;;;10.80;3.20;;;;;;5014033;28;20452;-83
2023/10/05 05:40:13;;;;;;;18.90;5.17;;;10.20;1.00;;;;;;5013456;28;20793;-84
2023/10/05 05:42:44;;;;;;;19.70;5.10;;;10.20;1.00;;;;;;5013021;28;20590;-85
2023/10/05 05:45:24;;;;;;;15.83;5.30;;;10.30;1.00;;;;;;5010592;28;20440;-86
2023/10/05 05:48:16;;;;;;;17.03;4.57;;;10.20;1.00;;;;;;5017421;28;20442;-85
2023/10/05 05:51:06;;;;;;;24.00;5.83;;;10.30;1.00;;;;;;5014478;28;20521;-84
2023/10/05 05:54:10;;;;;;;12.10;5.47;;;10.30;1.00;;;;;;5020443;28;20435;-84
2023/10/05 05:56:54;;;;;;;15.93;5.70;;;10.40;1.30;;;;;;5019192;28;20440;-85
2023/10/05 05:59:28;;;;;;;15.90;6.10;;;10.50;1.00;;;;;;5010316;28;20507;-84
2023/10/05 06:05:16;;;;;;;13.13;5.80;;;10.60;1.00;;;;;;5000351;28;20443;-85
2023/10/05 06:08:01;;;;;;;23.80;5.27;;;11.80;1.00;;;;;;5011200;28;20926;-85
2023/10/05 06:10:43;;;;;;;24.37;6.43;;;10.70;1.00;;;;;;5026521;28;20465;-85
2023/10/05 06:13:42;;;;;;;109.30;33.63;;;10.60;1.00;;;;;;5032805;28;20508;-85
2023/10/05 06:16:09;;;;;;;18.87;5.73;;;10.70;1.00;;;;;;4998841;28;20444;-84
2023/10/05 06:18:54;;;;;;;13.73;5.50;;;10.70;1.00;;;;;;5011907;28;20527;-85
2023/10/05 06:21:22;;;;;;;17.17;6.43;;;10.80;2.60;;;;;;5001063;28;20428;-83
2023/10/05 06:23:53;;;;;;;11.30;5.40;;;11.40;3.60;;;;;;5012103;28;20938;-83
2023/10/05 06:27:10;;;;;;;17.23;5.83;;;10.90;2.40;;;;;;5024613;28;20415;-83
2023/10/05 06:29:47;;;;;;;16.67;6.77;;;11.00;5.20;;;;;;5014520;28;20455;-83
2023/10/05 06:32:12;;;;;;;26.20;6.37;;;11.20;3.40;;;;;;5017866;28;20427;-83
2023/10/05 06:34:40;;;;;;;22.30;6.53;;;11.20;6.20;;;;;;5012150;28;20519;-85
2023/10/05 06:37:06;;;;;;;21.07;7.33;;;11.60;6.40;;;;;;5011641;28;20239;-85
2023/10/05 06:39:46;;;;;;;20.77;7.20;;;11.70;3.30;;;;;;5022854;28;20957;-85
2023/10/05 06:42:25;;;;;;;14.07;6.30;;;;;;;;;;5012294;28;20188;-85
2023/10/05 06:45:07;;;;;;;24.17;6.70;;;;;;;;;;5020687;28;20452;-85
2023/10/05 06:48:10;;;;;;;17.80;6.43;;;12.10;1.00;;;;;;5022385;28;20415;-85
2023/10/05 06:50:43;;;;;;;12.80;5.50;;;12.20;1.00;;;;;;5018250;28;20476;-85
2023/10/05 06:53:13;;;;;;;25.00;7.77;;;12.50;1.00;;;;;;5012369;28;20460;-85
2023/10/05 06:55:39;;;;;;;23.33;7.77;;;12.60;1.00;;;;;;5021245;28;20542;-85
2023/10/05 06:58:05;;;;;;;18.50;7.10;;;12.60;1.00;;;;;;5012269;28;21015;-85
2023/10/05 07:00:40;;;;;;;17.70;6.90;;;12.80;1.00;;;;;;5011148;28;20208;-85
2023/10/05 07:03:06;;;;;;;14.83;5.93;;;12.80;1.00;;;;;;5018071;28;20436;-86
2023/10/05 07:05:40;;;;;;;18.97;6.73;;;12.90;1.00;;;;;;5012904;28;20961;-85
2023/10/05 07:08:12;;;;;;;24.53;6.53;;;12.90;1.00;;;;;;5029208;28;20253;-85
2023/10/05 07:10:52;;;;;;;12.90;5.80;;;13.00;1.00;;;;;;5027639;28;20500;-86
2023/10/05 07:13:52;;;;;;;10.50;5.13;;;13.10;1.00;;;;;;5011477;28;20519;-86
2023/10/05 07:16:29;;;;;;;17.40;6.00;;;13.10;1.00;;;;;;5009066;28;20428;-79
2023/10/05 07:18:58;;;;;;;20.17;5.83;;;13.10;1.00;;;;;;5019147;28;20501;-79
2023/10/05 07:21:34;;;;;;;15.07;6.37;;;13.20;1.00;;;;;;5020141;28;21543;-80
2023/10/05 07:24:04;;;;;;;21.53;5.77;;;13.20;1.00;;;;;;5018649;28;20431;-80
2023/10/05 07:27:04;;;;;;;26.07;6.80;;;13.20;1.00;;;;;;5025898;28;20416;-80
2023/10/05 07:29:34;;;;;;;20.63;5.60;;;13.40;1.00;;;;;;5013940;28;20456;-80
2023/10/05 07:32:07;;;;;;;14.83;5.50;;;13.60;1.00;;;;;;5020543;28;20413;-81
2023/10/05 07:34:34;;;;;;;10.60;4.30;;;13.50;1.00;;;;;;5018741;28;20430;-80
2023/10/05 07:37:01;;;;;;;12.47;5.03;;;13.60;1.00;;;;;;5028320;28;20418;-81
2023/10/05 07:39:52;;;;;;;8.60;4.73;;;13.70;1.00;;;;;;5003671;28;20436;-80
2023/10/05 07:42:52;;;;;;;21.33;5.97;;;13.80;1.00;;;;;;5024391;28;21503;-81
2023/10/05 07:45:30;;;;;;;15.43;5.23;;;13.90;1.00;;;;;;5012915;28;20431;-81
2023/10/05 07:48:11;;;;;;;10.40;5.07;;;14.00;1.00;;;;;;4996814;28;20920;-80
2023/10/05 07:50:53;;;;;;;15.93;4.97;;;14.00;1.00;;;;;;5011561;28;20787;-81
2023/10/05 07:53:34;;;;;;;16.70;5.10;;;13.90;1.00;;;;;;5010215;28;20911;-81
2023/10/05 07:56:11;;;;;;;15.80;5.30;;;14.10;1.00;;;;;;4997773;28;20430;-81
2023/10/05 07:58:42;;;;;;;17.70;4.30;;;14.20;1.00;;;;;;5014616;28;20419;-81
2023/10/05 08:01:08;;;;;;;13.23;4.30;;;14.30;1.00;;;;;;5023431;28;20427;-81
2023/10/05 08:03:40;;;;;;;13.70;5.57;;;14.20;1.00;;;;;;5014101;28;20427;-81
2023/10/05 08:06:09;;;;;;;15.93;5.10;;;14.30;1.00;;;;;;5027855;28;20181;-81
2023/10/05 08:08:35;;;;;;;15.17;5.00;;;14.50;1.00;;;;;;5022937;28;20470;-81
2023/10/05 08:11:15;;;;;;;9.43;4.10;;;14.40;1.00;;;;;;5020132;28;20452;-81
2023/10/05 08:13:58;;;;;;;13.37;4.70;;;14.30;1.00;;;;;;5018004;28;20427;-81
2023/10/05 08:16:49;;;;;;;25.67;6.93;;;14.70;1.00;;;;;;5013339;28;20907;-81
2023/10/05 08:19:24;;;;;;;19.53;5.70;;;14.80;1.00;;;;;;4975224;28;1168682;-80
2023/10/05 08:21:55;;;;;;;36.27;31.07;;;14.90;1.00;;;;;;5018960;28;20187;-81
2023/10/05 08:24:23;;;;;;;13.33;4.50;;;15.00;1.00;;;;;;5021407;28;20427;-81
2023/10/05 08:27:06;;;;;;;16.53;3.80;;;15.30;1.00;;;;;;5020814;28;20431;-81
2023/10/05 08:29:42;;;;;;;29.97;6.50;;;15.60;1.00;;;;;;5009408;28;20473;-81
2023/10/05 08:32:40;;;;;;;13.70;3.70;;;15.70;1.00;;;;;;5025187;28;20500;-81
2023/10/05 08:35:14;;;;;;;22.27;5.80;;;15.60;1.00;;;;;;5030631;28;20390;-81
2023/10/05 08:37:49;;;;;;;14.87;5.27;;;15.60;1.00;;;;;;5020998;28;20386;-81
2023/10/05 08:40:48;;;;;;;15.93;4.70;;;15.60;1.00;;;;;;5033326;28;20418;-82
2023/10/05 08:43:46;;;;;;;11.53;4.10;;;15.50;1.00;;;;;;5018252;28;20433;-81
2023/10/05 08:46:23;;;;;;;17.73;3.40;;;15.60;1.00;;;;;;5014579;28;20427;-81
2023/10/05 08:49:15;;;;;;;16.73;4.30;;;15.60;1.00;;;;;;5029844;28;20497;-81
2023/10/05 08:52:14;;;;;;;12.23;3.33;;;15.80;1.00;;;;;;5017448;28;20444;-80
2023/10/05 08:54:43;;;;;;;20.37;4.80;;;16.00;1.00;;;;;;5007138;28;20500;-80
2023/10/05 08:57:11;;;;;;;9.93;4.07;;;15.90;1.00;;;;;;5023527;28;20425;-80
2023/10/05 08:59:45;;;;;;;11.90;3.60;;;15.60;1.00;;;;;;5014900;28;20442;-80
2023/10/05 09:02:40;;;;;;;12.30;4.70;;;15.70;1.00;;;;;;5025893;28;20412;-80
2023/10/05 09:05:16;;;;;;;12.30;4.50;;;16.00;1.00;;;;;;5016413;28;20560;-80
2023/10/05 09:07:55;;;;;;;11.80;3.87;;;16.00;1.00;;;;;;5022985;28;20806;-80
2023/10/05 09:10:26;;;;;;;12.40;3.70;;;15.90;1.00;;;;;;5031634;28;20893;-80
2023/10/05 09:13:13;;;;;;;11.73;4.10;;;15.90;1.00;;;;;;5021519;28;20422;-80
2023/10/05 09:15:52;;;;;;;14.13;4.37;;;15.90;1.00;;;;;;5007491;28;21498;-79
2023/10/05 09:18:18;;;;;;;37.07;5.30;;;15.90;1.00;;;;;;5021776;28;20444;-80
2023/10/05 09:20:48;;;;;;;22.50;5.97;;;15.70;1.00;;;;;;5020033;28;20440;-80
2023/10/05 09:23:20;;;;;;;15.13;4.90;;;15.70;1.00;;;;;;5011068;28;20194;-81
2023/10/05 09:25:53;;;;;;;12.97;4.50;;;15.60;1.00;;;;;;5008758;28;20415;-81
2023/10/05 09:28:45;;;;;;;18.87;4.37;;;15.70;1.00;;;;;;5022543;28;20441;-81
2023/10/05 09:31:11;;;;;;;15.70;5.30;;;16.00;1.00;;;;;;5021343;28;20459;-81
2023/10/05 09:34:02;;;;;;;8.70;3.60;;;16.00;1.00;;;;;;5026711;28;20421;-81
2023/10/05 09:36:41;;;;;;;10.77;3.83;;;16.00;1.00;;;;;;5026388;28;20398;-80
2023/10/05 09:39:28;;;;;;;12.17;4.30;;;16.20;1.00;;;;;;5018051;28;20449;-79
2023/10/05 09:42:07;;;;;;;15.20;4.70;;;16.30;1.00;;;;;;5018231;28;20420;-80
2023/10/05 09:44:51;;;;;;;13.90;4.57;;;16.40;1.00;;;;;;5020966;28;20446;-79
2023/10/05 09:47:32;;;;;;;11.93;4.23;;;16.40;1.00;;;;;;5009602;28;20500;-80
2023/10/05 09:50:15;;;;;;;10.10;3.93;;;16.40;1.00;;;;;;5021092;28;20534;-80
2023/10/05 09:52:56;;;;;;;24.67;4.07;;;16.50;1.00;;;;;;5012692;28;20439;-80
2023/10/05 09:55:23;;;;;;;14.20;4.63;;;16.80;1.00;;;;;;5026007;28;20400;-81
2023/10/05 09:58:40;;;;;;;18.40;4.97;;;17.00;1.00;;;;;;5017504;28;20525;-80
2023/10/05 10:01:10;;;;;;;16.03;4.07;;;17.20;1.00;;;;;;5018848;28;20418;-81
2023/10/05 10:03:45;;;;;;;8.90;3.60;;;17.20;1.00;;;;;;5018051;28;20926;-81
2023/10/05 10:06:35;;;;;;;9.63;3.70;;;17.10;1.00;;;;;;5020400;28;20746;-81
2023/10/05 10:09:11;;;;;;;19.10;3.90;;;17.30;1.00;;;;;;5025671;28;20424;-81
2023/10/05 10:11:41;;;;;;;14.70;4.97;;;17.40;1.00;;;;;;5019624;28;20409;-81
2023/10/05 10:14:18;;;;;;;10.93;3.80;;;17.40;1.00;;;;;;5033085;28;20393;-80
2023/10/05 10:17:24;;;;;;;13.63;3.83;;;17.80;1.00;;;;;;5014730;28;20554;-80
2023/10/05 10:23:21;;;;;;;21.87;4.63;;;17.90;1.00;;;;;;4983164;28;20424;-90
2023/10/05 10:26:24;;;;;;;10.37;4.27;;;17.80;1.00;;;;;;4973339;28;20412;-89
2023/10/05 10:29:07;;;;;;;10.50;4.30;;;18.00;1.00;;;;;;4958020;28;20400;-89
2023/10/05 10:31:47;;;;;;;13.70;3.77;;;17.90;1.00;;;;;;4958369;28;20431;-88
2023/10/05 10:34:49;;;;;;;14.27;4.23;;;18.10;1.00;;;;;;4974472;28;20942;-89
2023/10/05 10:37:59;;;;;;;15.60;4.30;;;18.40;1.00;;;;;;4973089;28;20471;-91
2023/10/05 10:40:30;;;;;;;15.80;4.03;;;18.60;1.00;;;;;;4957102;28;20528;-91
2023/10/05 10:43:06;;;;;;;11.80;3.93;;;18.40;1.00;;;;;;4955526;28;20918;-92
2023/10/05 10:45:42;;;;;;;7.30;3.43;;;18.20;1.00;;;;;;4953795;29;21186;-91
2023/10/05 10:48:52;;;;;;;16.17;4.23;;;18.30;1.00;;;;;;4969048;28;20394;-90
2023/10/05 10:51:24;;;;;;;6.77;2.70;;;18.10;1.00;;;;;;4952126;28;20452;-91
2023/10/05 10:54:16;;;;;;;9.67;3.60;;;18.20;1.00;;;;;;4971211;28;20435;-91
2023/10/05 10:57:14;;;;;;;21.90;3.47;;;18.10;1.00;;;;;;4976921;28;20819;-91
2023/10/05 11:02:47;;;;;;;9.47;2.97;;;18.10;1.00;;;;;;4965036;28;20423;-90
2023/10/05 11:08:59;;;;;;;16.87;3.07;;;18.20;1.00;;;;;;4972668;28;20472;-91
2023/10/05 11:11:38;;;;;;;16.73;3.30;;;18.10;1.00;;;;;;4978679;28;21040;-91
2023/10/05 11:14:07;;;;;;;16.37;4.07;;;18.40;1.00;;;;;;4983227;28;20494;-90
2023/10/05 11:17:36;;;;;;;12.60;3.20;;;18.80;1.00;;;;;;5021757;28;20438;-91
2023/10/05 11:20:33;;;;;;;15.30;3.40;;;18.80;1.00;;;;;;4979705;28;20433;-91
2023/10/05 11:23:10;;;;;;;12.90;3.30;;;18.60;1.00;;;;;;4976547;28;20417;-89
2023/10/05 11:26:33;;;;;;;13.17;3.50;;;18.70;1.00;;;;;;4960241;28;20507;-89
2023/10/05 11:29:15;;;;;;;9.53;3.17;;;18.90;1.00;;;;;;4952883;28;20784;-83
2023/10/05 11:31:50;;;;;;;10.60;3.90;;;19.10;1.00;;;;;;4972544;28;20439;-81
2023/10/05 11:34:42;;;;;;;13.30;2.97;;;19.20;1.00;;;;;;4988545;28;20485;-82
2023/10/05 11:37:44;;;;;;;7.77;2.80;;;19.20;1.00;;;;;;4974662;28;20458;-82
2023/10/05 11:40:23;;;;;;;8.50;2.30;;;19.40;1.00;;;;;;4963762;28;20430;-79
2023/10/05 11:43:13;;;;;;;7.70;2.30;;;19.30;1.00;;;;;;4981034;28;21011;-79
2023/10/05 11:46:17;;;;;;;5.67;2.40;;;19.20;1.00;;;;;;4990508;28;20904;-78
2023/10/05 11:48:55;;;;;;;7.70;1.87;;;19.10;1.00;;;;;;4979198;28;20488;-80
2023/10/05 11:51:36;;;;;;;10.10;2.80;;;18.80;1.00;;;;;;5000645;28;20499;-80
2023/10/05 11:54:04;;;;;;;9.57;1.77;;;18.70;1.00;;;;;;5027111;28;20427;-79
2023/10/05 11:56:41;;;;;;;4.93;2.47;;;18.50;1.00;;;;;;5021418;28;20408;-80
2023/10/05 11:59:11;;;;;;;6.70;1.93;;;18.70;1.00;;;;;;5015568;28;20758;-79
2023/10/05 12:01:41;;;;;;;3.53;1.80;;;18.50;1.00;;;;;;5029832;28;20480;-80
2023/10/05 12:04:10;;;;;;;6.13;2.60;;;18.50;1.00;;;;;;5025280;28;20415;-80
2023/10/05 12:06:40;;;;;;;4.47;1.90;;;18.40;1.00;;;;;;5024854;28;20762;-80
2023/10/05 12:09:27;;;;;;;8.63;2.20;;;18.40;1.00;;;;;;5014322;28;20409;-80
2023/10/05 12:12:13;;;;;;;7.30;2.20;;;18.30;1.00;;;;;;5025563;28;20468;-80
2023/10/05 12:14:41;;;;;;;6.93;4.23;;;18.30;1.00;;;;;;5027158;28;20392;-80
2023/10/05 12:17:11;;;;;;;14.80;3.50;;;18.30;1.00;;;;;;5016716;28;20405;-80
2023/10/05 12:19:41;;;;;;;8.50;2.10;;;18.30;1.00;;;;;;5010291;28;20585;-80
2023/10/05 12:22:13;;;;;;;5.10;2.27;;;18.30;1.00;;;;;;5013050;28;20415;-79
2023/10/05 12:24:40;;;;;;;5.10;2.00;;;18.50;1.00;;;;;;5031407;28;20728;-80
2023/10/05 12:27:13;;;;;;;10.00;2.27;;;18.60;1.00;;;;;;5015202;28;20402;-79
2023/10/05 12:29:52;;;;;;;5.17;2.33;;;18.70;1.00;;;;;;5014655;28;20598;-79
2023/10/05 12:32:24;;;;;;;4.03;1.93;;;18.70;1.00;;;;;;5021878;28;20412;-79
2023/10/05 12:35:13;;;;;;;6.00;1.80;;;18.80;1.00;;;;;;5024952;28;20450;-79
2023/10/05 12:37:47;;;;;;;6.20;2.10;;;18.90;1.00;;;;;;5015191;28;20470;-80
2023/10/05 12:40:26;;;;;;;7.73;2.30;;;19.00;1.00;;;;;;5001801;28;20422;-79
2023/10/05 12:42:53;;;;;;;4.30;1.80;;;19.10;1.00;;;;;;5014910;28;20926;-79
2023/10/05 12:45:24;;;;;;;4.23;1.50;;;19.10;1.00;;;;;;5015005;28;20409;-80
2023/10/05 12:47:53;;;;;;;6.07;2.23;;;19.00;1.00;;;;;;5016261;28;20423;-81
2023/10/05 12:51:11;;;;;;;6.43;2.10;;;19.00;1.00;;;;;;4995326;28;20460;-79
2023/10/05 12:53:40;;;;;;;6.90;2.00;;;18.90;1.00;;;;;;5012975;28;20391;-79
2023/10/05 12:56:11;;;;;;;9.93;2.87;;;18.80;1.00;;;;;;5025551;28;20833;-81
2023/10/05 12:58:40;;;;;;;12.10;3.00;;;18.60;1.00;;;;;;5027454;28;20407;-80
2023/10/05 13:01:12;;;;;;;17.10;2.10;;;18.70;1.00;;;;;;5015067;28;20419;-80
2023/10/05 13:03:41;;;;;;;6.70;1.37;;;18.60;1.00;;;;;;5026034;28;20413;-80
2023/10/05 13:06:17;;;;;;;14.63;2.27;;;18.50;1.00;;;;;;5013206;28;20391;-80
2023/10/05 13:09:18;;;;;;;7.53;2.23;;;18.60;1.00;;;;;;5011029;28;20789;-80
2023/10/05 13:12:12;;;;;;;7.60;1.70;;;18.90;1.00;;;;;;5014482;28;20395;-80
2023/10/05 13:14:41;;;;;;;8.23;2.07;;;18.70;1.00;;;;;;5021356;28;20415;-80
2023/10/05 13:17:12;;;;;;;10.83;2.50;;;18.90;1.00;;;;;;5008747;28;20421;-80
2023/10/05 13:19:41;;;;;;;5.17;2.23;;;18.60;1.00;;;;;;5012609;28;20430;-80
2023/10/05 13:22:44;;;;;;;3.37;1.70;;;18.60;1.00;;;;;;5021124;28;20505;-80
2023/10/05 13:25:11;;;;;;;4.80;1.80;;;18.70;1.00;;;;;;5031673;28;20431;-79
2023/10/05 13:27:42;;;;;;;7.13;2.57;;;18.70;1.00;;;;;;5031346;28;20371;-80
2023/10/05 13:30:22;;;;;;;5.40;1.97;;;18.70;1.00;;;;;;5015791;28;20468;-80
2023/10/05 13:32:57;;;;;;;8.57;2.10;;;18.70;1.00;;;;;;5016076;28;20510;-80
2023/10/05 13:35:42;;;;;;;1.87;1.73;;;18.60;1.00;;;;;;5027687;28;20409;-80
2023/10/05 13:38:12;;;;;;;6.77;1.63;;;18.60;1.00;;;;;;5023674;28;20420;-80
2023/10/05 13:40:57;;;;;;;8.10;2.20;;;18.70;1.00;;;;;;5014960;28;20485;-80
2023/10/05 13:43:27;;;;;;;10.03;2.37;;;18.80;1.00;;;;;;5007972;28;20491;-80
2023/10/05 13:46:17;;;;;;;7.33;2.30;;;18.80;1.00;;;;;;5000666;28;20413;-79
2023/10/05 13:49:13;;;;;;;5.90;1.67;;;18.70;1.00;;;;;;5010640;28;20444;-79
2023/10/05 13:51:50;;;;;;;12.50;2.67;;;18.70;1.00;;;;;;5013022;28;20473;-80
2023/10/05 13:55:10;;;;;;;11.67;2.20;;;18.70;1.00;;;;;;5015968;28;20402;-78
2023/10/05 13:57:40;;;;;;;20.30;3.47;;;18.70;1.00;;;;;;4994377;28;20484;-78
2023/10/05 14:00:17;;;;;;;9.07;1.90;;;18.50;1.00;;;;;;5012727;28;20807;-78
2023/10/05 14:03:12;;;;;;;5.13;1.80;;;18.50;1.00;;;;;;5013982;28;20803;-77
2023/10/05 14:05:50;;;;;;;30.13;5.17;;;18.50;1.00;;;;;;5009533;28;20942;-79
2023/10/05 14:08:35;;;;;;;10.13;2.80;;;18.50;1.00;;;;;;5010960;28;20863;-77
2023/10/05 14:11:01;;;;;;;6.93;2.10;;;18.30;1.00;;;;;;5013516;28;20984;-78
2023/10/05 14:13:29;;;;;;;12.60;2.73;;;18.30;1.00;;;;;;5021919;28;20522;-78
2023/10/05 14:16:00;;;;;;;5.53;2.10;;;18.20;1.00;;;;;;5023847;28;20434;-78
2023/10/05 14:18:30;;;;;;;4.67;2.13;;;18.20;1.00;;;;;;5017355;28;20886;-79
2023/10/05 14:20:56;;;;;;;4.23;1.83;;;18.20;1.00;;;;;;5011479;28;20406;-79
2023/10/05 14:23:24;;;;;;;4.50;1.83;;;18.20;1.00;;;;;;5015067;28;20440;-78
2023/10/05 14:25:53;;;;;;;4.37;1.70;;;18.20;1.00;;;;;;5013103;28;20435;-79
2023/10/05 14:28:40;;;;;;;5.90;2.03;;;18.40;1.00;;;;;;5012011;28;20783;-78
2023/10/05 14:31:11;;;;;;;5.07;1.90;;;18.40;1.00;;;;;;5037983;28;20494;-83
2023/10/05 14:34:13;;;;;;;4.80;1.47;;;18.40;1.00;;;;;;5012188;28;20442;-79
2023/10/05 14:36:41;;;;;;;4.47;1.57;;;18.40;1.00;;;;;;5009696;28;20437;-80
2023/10/05 14:39:36;;;;;;;5.93;1.97;;;18.30;1.00;;;;;;5030375;28;20912;-78
2023/10/05 14:42:23;;;;;;;3.43;1.60;;;18.30;1.00;;;;;;5016645;28;20533;-79
2023/10/05 14:44:53;;;;;;;4.50;2.03;;;18.20;1.00;;;;;;5016563;28;20415;-78
2023/10/05 14:47:41;;;;;;;10.77;1.90;;;18.20;1.00;;;;;;5004573;28;20434;-77
2023/10/05 14:50:11;;;;;;;169.50;123.27;;;18.40;1.00;;;;;;5019373;28;20558;-77
2023/10/05 14:52:42;;;;;;;16.03;2.17;;;18.50;1.00;;;;;;5032719;28;20483;-77
2023/10/05 14:55:11;;;;;;;5.27;1.47;;;18.40;1.00;;;;;;5014059;28;20439;-77
2023/10/05 14:57:41;;;;;;;4.87;1.97;;;18.20;1.00;;;;;;4996128;28;20534;-77
2023/10/05 15:00:14;;;;;;;10.80;1.73;;;18.30;1.00;;;;;;5015508;28;20916;-77